sensor_id;sensor_type;location;lat;lon;timestamp;P1;durP1;ratioP1;P2;durP2;ratioP2
19519;SDS011;9904;52.246;20.898;2023-04-24T00:00:44;12.93;;;7.07;;
19519;SDS011;9904;52.246;20.898;2023-04-24T00:03:11;18.37;;;7.97;;
19519;SDS011;9904;52.246;20.898;2023-04-24T00:05:39;17.00;;;7.60;;
19519;SDS011;9904;52.246;20.898;2023-04-24T00:08:07;18.10;;;7.93;;
19519;SDS011;9904;52.246;20.898;2023-04-24T00:10:34;16.10;;;7.40;;
19519;SDS011;9904;52.246;20.898;2023-04-24T00:13:01;14.93;;;7.63;;
19519;SDS011;9904;52.246;20.898;2023-04-24T00:15:28;11.83;;;7.23;;
19519;SDS011;9904;52.246;20.898;2023-04-24T00:17:55;12.07;;;6.97;;
19519;SDS011;9904;52.246;20.898;2023-04-24T00:20:22;16.47;;;7.10;;
19519;SDS011;9904;52.246;20.898;2023-04-24T00:22:48;12.63;;;6.57;;
19519;SDS011;9904;52.246;20.898;2023-04-24T00:25:15;15.93;;;7.67;;
19519;SDS011;9904;52.246;20.898;2023-04-24T00:27:42;15.33;;;7.67;;
19519;SDS011;9904;52.246;20.898;2023-04-24T00:30:08;14.13;;;6.90;;
19519;SDS011;9904;52.246;20.898;2023-04-24T00:32:36;14.10;;;6.80;;
19519;SDS011;9904;52.246;20.898;2023-04-24T00:35:03;19.67;;;6.80;;
19519;SDS011;9904;52.246;20.898;2023-04-24T00:37:30;16.80;;;7.40;;
19519;SDS011;9904;52.246;20.898;2023-04-24T00:39:57;14.47;;;7.83;;
19519;SDS011;9904;52.246;20.898;2023-04-24T00:42:23;15.20;;;7.93;;
19519;SDS011;9904;52.246;20.898;2023-04-24T00:44:50;14.50;;;7.33;;
19519;SDS011;9904;52.246;20.898;2023-04-24T00:47:17;21.77;;;8.37;;
19519;SDS011;9904;52.246;20.898;2023-04-24T00:49:45;17.50;;;8.53;;
19519;SDS011;9904;52.246;20.898;2023-04-24T00:52:11;15.27;;;7.57;;
19519;SDS011;9904;52.246;20.898;2023-04-24T00:54:38;17.17;;;8.30;;
19519;SDS011;9904;52.246;20.898;2023-04-24T00:57:05;16.97;;;8.07;;
19519;SDS011;9904;52.246;20.898;2023-04-24T00:59:31;18.43;;;7.77;;
19519;SDS011;9904;52.246;20.898;2023-04-24T01:01:58;16.97;;;8.00;;
19519;SDS011;9904;52.246;20.898;2023-04-24T01:04:25;20.03;;;7.67;;
19519;SDS011;9904;52.246;20.898;2023-04-24T01:06:52;17.63;;;8.13;;
19519;SDS011;9904;52.246;20.898;2023-04-24T01:09:19;15.70;;;8.13;;
19519;SDS011;9904;52.246;20.898;2023-04-24T01:11:48;16.63;;;7.37;;
19519;SDS011;9904;52.246;20.898;2023-04-24T01:14:14;13.27;;;7.10;;
19519;SDS011;9904;52.246;20.898;2023-04-24T01:16:41;15.87;;;8.07;;
19519;SDS011;9904;52.246;20.898;2023-04-24T01:19:08;14.20;;;7.37;;
19519;SDS011;9904;52.246;20.898;2023-04-24T01:21:37;13.77;;;7.53;;
19519;SDS011;9904;52.246;20.898;2023-04-24T01:24:05;14.30;;;7.77;;
19519;SDS011;9904;52.246;20.898;2023-04-24T01:26:31;18.40;;;8.50;;
19519;SDS011;9904;52.246;20.898;2023-04-24T01:28:58;13.93;;;7.90;;
19519;SDS011;9904;52.246;20.898;2023-04-24T01:31:25;15.73;;;7.83;;
19519;SDS011;9904;52.246;20.898;2023-04-24T01:33:52;15.00;;;7.77;;
19519;SDS011;9904;52.246;20.898;2023-04-24T01:36:19;12.90;;;7.27;;
19519;SDS011;9904;52.246;20.898;2023-04-24T01:38:46;13.57;;;7.33;;
19519;SDS011;9904;52.246;20.898;2023-04-24T01:41:13;12.83;;;6.53;;
19519;SDS011;9904;52.246;20.898;2023-04-24T01:43:39;15.90;;;7.83;;
19519;SDS011;9904;52.246;20.898;2023-04-24T01:46:06;14.13;;;7.57;;
19519;SDS011;9904;52.246;20.898;2023-04-24T01:48:33;15.57;;;7.17;;
19519;SDS011;9904;52.246;20.898;2023-04-24T01:50:59;15.93;;;7.90;;
19519;SDS011;9904;52.246;20.898;2023-04-24T01:53:26;15.87;;;7.87;;
19519;SDS011;9904;52.246;20.898;2023-04-24T01:55:53;15.60;;;7.77;;
19519;SDS011;9904;52.246;20.898;2023-04-24T01:58:19;16.63;;;7.93;;
19519;SDS011;9904;52.246;20.898;2023-04-24T02:00:46;13.97;;;7.67;;
19519;SDS011;9904;52.246;20.898;2023-04-24T02:03:12;18.93;;;7.20;;
19519;SDS011;9904;52.246;20.898;2023-04-24T02:05:39;18.83;;;7.60;;
19519;SDS011;9904;52.246;20.898;2023-04-24T02:08:05;16.50;;;7.40;;
19519;SDS011;9904;52.246;20.898;2023-04-24T02:10:32;16.10;;;7.50;;
19519;SDS011;9904;52.246;20.898;2023-04-24T02:12:59;17.17;;;8.37;;
19519;SDS011;9904;52.246;20.898;2023-04-24T02:15:25;12.17;;;7.67;;
19519;SDS011;9904;52.246;20.898;2023-04-24T02:17:52;16.00;;;8.13;;
19519;SDS011;9904;52.246;20.898;2023-04-24T02:20:18;14.70;;;8.33;;
19519;SDS011;9904;52.246;20.898;2023-04-24T02:22:45;15.80;;;7.03;;
19519;SDS011;9904;52.246;20.898;2023-04-24T02:25:12;15.00;;;8.47;;
19519;SDS011;9904;52.246;20.898;2023-04-24T02:27:38;16.47;;;8.60;;
19519;SDS011;9904;52.246;20.898;2023-04-24T02:30:05;21.43;;;8.23;;
19519;SDS011;9904;52.246;20.898;2023-04-24T02:32:32;13.60;;;8.10;;
19519;SDS011;9904;52.246;20.898;2023-04-24T02:35:00;19.53;;;8.97;;
19519;SDS011;9904;52.246;20.898;2023-04-24T02:37:26;15.30;;;8.30;;
19519;SDS011;9904;52.246;20.898;2023-04-24T02:39:53;18.40;;;8.20;;
19519;SDS011;9904;52.246;20.898;2023-04-24T02:42:19;16.00;;;8.67;;
19519;SDS011;9904;52.246;20.898;2023-04-24T02:44:46;13.83;;;8.20;;
19519;SDS011;9904;52.246;20.898;2023-04-24T02:47:12;12.83;;;7.73;;
19519;SDS011;9904;52.246;20.898;2023-04-24T02:49:39;21.03;;;9.20;;
19519;SDS011;9904;52.246;20.898;2023-04-24T02:52:06;16.43;;;8.13;;
19519;SDS011;9904;52.246;20.898;2023-04-24T02:54:32;18.10;;;8.37;;
19519;SDS011;9904;52.246;20.898;2023-04-24T02:56:59;17.30;;;8.87;;
19519;SDS011;9904;52.246;20.898;2023-04-24T02:59:26;17.37;;;9.23;;
19519;SDS011;9904;52.246;20.898;2023-04-24T03:01:54;18.83;;;8.90;;
19519;SDS011;9904;52.246;20.898;2023-04-24T03:04:21;14.30;;;8.57;;
19519;SDS011;9904;52.246;20.898;2023-04-24T03:06:48;15.67;;;8.87;;
19519;SDS011;9904;52.246;20.898;2023-04-24T03:09:15;19.10;;;9.23;;
19519;SDS011;9904;52.246;20.898;2023-04-24T03:11:41;15.40;;;9.07;;
19519;SDS011;9904;52.246;20.898;2023-04-24T03:14:08;17.20;;;8.77;;
19519;SDS011;9904;52.246;20.898;2023-04-24T03:16:35;15.47;;;8.30;;
19519;SDS011;9904;52.246;20.898;2023-04-24T03:19:01;15.63;;;8.33;;
19519;SDS011;9904;52.246;20.898;2023-04-24T03:21:28;18.73;;;8.80;;
19519;SDS011;9904;52.246;20.898;2023-04-24T03:23:55;19.53;;;8.47;;
19519;SDS011;9904;52.246;20.898;2023-04-24T03:26:21;18.63;;;8.70;;
19519;SDS011;9904;52.246;20.898;2023-04-24T03:28:48;18.90;;;9.27;;
19519;SDS011;9904;52.246;20.898;2023-04-24T03:31:14;21.93;;;10.97;;
19519;SDS011;9904;52.246;20.898;2023-04-24T03:33:41;21.87;;;9.33;;
19519;SDS011;9904;52.246;20.898;2023-04-24T03:36:08;19.40;;;8.47;;
19519;SDS011;9904;52.246;20.898;2023-04-24T03:38:35;32.80;;;12.80;;
19519;SDS011;9904;52.246;20.898;2023-04-24T03:41:02;27.93;;;14.63;;
19519;SDS011;9904;52.246;20.898;2023-04-24T03:43:28;47.80;;;20.37;;
19519;SDS011;9904;52.246;20.898;2023-04-24T03:45:55;45.27;;;20.20;;
19519;SDS011;9904;52.246;20.898;2023-04-24T03:48:22;43.90;;;21.93;;
19519;SDS011;9904;52.246;20.898;2023-04-24T03:50:48;45.93;;;19.43;;
19519;SDS011;9904;52.246;20.898;2023-04-24T03:53:15;39.30;;;18.63;;
19519;SDS011;9904;52.246;20.898;2023-04-24T03:55:42;34.80;;;16.20;;
19519;SDS011;9904;52.246;20.898;2023-04-24T03:58:09;30.83;;;13.50;;
19519;SDS011;9904;52.246;20.898;2023-04-24T04:00:37;25.83;;;11.70;;
19519;SDS011;9904;52.246;20.898;2023-04-24T04:03:06;18.67;;;9.03;;
19519;SDS011;9904;52.246;20.898;2023-04-24T04:05:33;18.07;;;8.17;;
19519;SDS011;9904;52.246;20.898;2023-04-24T04:08:00;16.17;;;7.87;;
19519;SDS011;9904;52.246;20.898;2023-04-24T04:10:26;20.50;;;8.97;;
19519;SDS011;9904;52.246;20.898;2023-04-24T04:12:53;20.77;;;7.90;;
19519;SDS011;9904;52.246;20.898;2023-04-24T04:15:19;15.43;;;7.33;;
19519;SDS011;9904;52.246;20.898;2023-04-24T04:17:46;16.07;;;7.40;;
19519;SDS011;9904;52.246;20.898;2023-04-24T04:20:13;15.00;;;7.87;;
19519;SDS011;9904;52.246;20.898;2023-04-24T04:22:40;24.10;;;8.77;;
19519;SDS011;9904;52.246;20.898;2023-04-24T04:25:10;18.83;;;8.07;;
19519;SDS011;9904;52.246;20.898;2023-04-24T04:27:37;16.70;;;7.80;;
19519;SDS011;9904;52.246;20.898;2023-04-24T04:30:05;19.73;;;8.17;;
19519;SDS011;9904;52.246;20.898;2023-04-24T04:32:32;17.37;;;7.53;;
19519;SDS011;9904;52.246;20.898;2023-04-24T04:35:01;18.90;;;7.87;;
19519;SDS011;9904;52.246;20.898;2023-04-24T04:37:31;16.37;;;8.13;;
19519;SDS011;9904;52.246;20.898;2023-04-24T04:40:00;24.77;;;8.63;;
19519;SDS011;9904;52.246;20.898;2023-04-24T04:42:27;18.67;;;8.30;;
19519;SDS011;9904;52.246;20.898;2023-04-24T04:44:54;22.37;;;8.40;;
19519;SDS011;9904;52.246;20.898;2023-04-24T04:47:23;17.63;;;8.13;;
19519;SDS011;9904;52.246;20.898;2023-04-24T04:49:50;18.40;;;8.83;;
19519;SDS011;9904;52.246;20.898;2023-04-24T04:52:19;17.47;;;8.73;;
19519;SDS011;9904;52.246;20.898;2023-04-24T04:54:46;15.43;;;8.20;;
19519;SDS011;9904;52.246;20.898;2023-04-24T04:57:12;19.17;;;8.23;;
19519;SDS011;9904;52.246;20.898;2023-04-24T04:59:39;17.13;;;8.80;;
19519;SDS011;9904;52.246;20.898;2023-04-24T05:02:08;23.13;;;8.80;;
19519;SDS011;9904;52.246;20.898;2023-04-24T05:04:36;19.23;;;8.03;;
19519;SDS011;9904;52.246;20.898;2023-04-24T05:07:03;19.37;;;9.03;;
19519;SDS011;9904;52.246;20.898;2023-04-24T05:09:30;16.33;;;8.23;;
19519;SDS011;9904;52.246;20.898;2023-04-24T05:11:56;22.37;;;8.17;;
19519;SDS011;9904;52.246;20.898;2023-04-24T05:14:23;17.50;;;8.87;;
19519;SDS011;9904;52.246;20.898;2023-04-24T05:16:49;23.53;;;8.43;;
19519;SDS011;9904;52.246;20.898;2023-04-24T05:19:16;16.83;;;8.37;;
19519;SDS011;9904;52.246;20.898;2023-04-24T05:21:42;26.60;;;9.13;;
19519;SDS011;9904;52.246;20.898;2023-04-24T05:24:10;23.13;;;8.10;;
19519;SDS011;9904;52.246;20.898;2023-04-24T05:26:36;21.57;;;8.43;;
19519;SDS011;9904;52.246;20.898;2023-04-24T05:29:04;17.90;;;8.37;;
19519;SDS011;9904;52.246;20.898;2023-04-24T05:31:30;19.20;;;8.27;;
19519;SDS011;9904;52.246;20.898;2023-04-24T05:33:57;18.47;;;8.20;;
19519;SDS011;9904;52.246;20.898;2023-04-24T05:36:23;24.80;;;8.60;;
19519;SDS011;9904;52.246;20.898;2023-04-24T05:38:50;17.97;;;8.67;;
19519;SDS011;9904;52.246;20.898;2023-04-24T05:41:16;30.30;;;9.40;;
19519;SDS011;9904;52.246;20.898;2023-04-24T05:43:43;17.97;;;8.00;;
19519;SDS011;9904;52.246;20.898;2023-04-24T05:46:11;18.73;;;8.13;;
19519;SDS011;9904;52.246;20.898;2023-04-24T05:48:38;15.17;;;8.07;;
19519;SDS011;9904;52.246;20.898;2023-04-24T05:51:04;24.93;;;8.37;;
19519;SDS011;9904;52.246;20.898;2023-04-24T05:53:31;20.23;;;8.43;;
19519;SDS011;9904;52.246;20.898;2023-04-24T05:55:58;23.27;;;8.90;;
19519;SDS011;9904;52.246;20.898;2023-04-24T05:58:24;20.13;;;8.20;;
19519;SDS011;9904;52.246;20.898;2023-04-24T06:00:51;16.37;;;8.83;;
19519;SDS011;9904;52.246;20.898;2023-04-24T06:03:18;22.80;;;8.47;;
19519;SDS011;9904;52.246;20.898;2023-04-24T06:05:44;25.53;;;9.30;;
19519;SDS011;9904;52.246;20.898;2023-04-24T06:08:11;27.93;;;8.53;;
19519;SDS011;9904;52.246;20.898;2023-04-24T06:10:38;18.60;;;7.70;;
19519;SDS011;9904;52.246;20.898;2023-04-24T06:13:05;16.57;;;7.70;;
19519;SDS011;9904;52.246;20.898;2023-04-24T06:15:31;22.43;;;8.80;;
19519;SDS011;9904;52.246;20.898;2023-04-24T06:17:58;15.93;;;7.53;;
19519;SDS011;9904;52.246;20.898;2023-04-24T06:20:25;21.03;;;8.33;;
19519;SDS011;9904;52.246;20.898;2023-04-24T06:22:51;20.37;;;8.07;;
19519;SDS011;9904;52.246;20.898;2023-04-24T06:25:18;14.57;;;7.70;;
19519;SDS011;9904;52.246;20.898;2023-04-24T06:27:45;20.83;;;7.97;;
19519;SDS011;9904;52.246;20.898;2023-04-24T06:30:12;18.70;;;7.60;;
19519;SDS011;9904;52.246;20.898;2023-04-24T06:32:39;20.20;;;7.57;;
19519;SDS011;9904;52.246;20.898;2023-04-24T06:35:06;16.10;;;7.13;;
19519;SDS011;9904;52.246;20.898;2023-04-24T06:37:36;17.17;;;6.93;;
19519;SDS011;9904;52.246;20.898;2023-04-24T06:40:03;20.27;;;7.23;;
19519;SDS011;9904;52.246;20.898;2023-04-24T06:42:33;18.02;;;6.90;;
19519;SDS011;9904;52.246;20.898;2023-04-24T06:45:01;17.33;;;6.45;;
19519;SDS011;9904;52.246;20.898;2023-04-24T06:47:28;17.15;;;6.72;;
19519;SDS011;9904;52.246;20.898;2023-04-24T06:49:54;21.40;;;6.55;;
19519;SDS011;9904;52.246;20.898;2023-04-24T06:52:21;18.77;;;6.80;;
19519;SDS011;9904;52.246;20.898;2023-04-24T06:54:48;16.98;;;7.00;;
19519;SDS011;9904;52.246;20.898;2023-04-24T06:57:14;17.80;;;7.38;;
19519;SDS011;9904;52.246;20.898;2023-04-24T06:59:42;14.80;;;6.05;;
19519;SDS011;9904;52.246;20.898;2023-04-24T07:02:10;23.02;;;7.38;;
19519;SDS011;9904;52.246;20.898;2023-04-24T07:04:36;21.27;;;6.97;;
19519;SDS011;9904;52.246;20.898;2023-04-24T07:07:03;17.48;;;6.93;;
19519;SDS011;9904;52.246;20.898;2023-04-24T07:09:30;23.75;;;7.28;;
19519;SDS011;9904;52.246;20.898;2023-04-24T07:11:58;17.60;;;6.53;;
19519;SDS011;9904;52.246;20.898;2023-04-24T07:14:24;23.15;;;7.22;;
19519;SDS011;9904;52.246;20.898;2023-04-24T07:16:51;24.42;;;6.53;;
19519;SDS011;9904;52.246;20.898;2023-04-24T07:19:18;15.13;;;6.30;;
19519;SDS011;9904;52.246;20.898;2023-04-24T07:21:44;24.58;;;6.72;;
19519;SDS011;9904;52.246;20.898;2023-04-24T07:24:11;14.90;;;6.47;;
19519;SDS011;9904;52.246;20.898;2023-04-24T07:26:39;22.55;;;6.78;;
19519;SDS011;9904;52.246;20.898;2023-04-24T07:29:06;23.77;;;7.00;;
19519;SDS011;9904;52.246;20.898;2023-04-24T07:31:33;26.33;;;7.00;;
19519;SDS011;9904;52.246;20.898;2023-04-24T07:34:00;18.98;;;6.30;;
19519;SDS011;9904;52.246;20.898;2023-04-24T07:36:27;27.45;;;7.20;;
19519;SDS011;9904;52.246;20.898;2023-04-24T07:38:54;26.58;;;6.90;;
19519;SDS011;9904;52.246;20.898;2023-04-24T07:41:22;22.10;;;7.72;;
19519;SDS011;9904;52.246;20.898;2023-04-24T07:43:50;16.17;;;6.65;;
19519;SDS011;9904;52.246;20.898;2023-04-24T07:46:17;19.83;;;7.00;;
19519;SDS011;9904;52.246;20.898;2023-04-24T07:48:44;22.57;;;6.63;;
19519;SDS011;9904;52.246;20.898;2023-04-24T07:51:10;25.17;;;7.23;;
19519;SDS011;9904;52.246;20.898;2023-04-24T07:53:39;16.15;;;6.50;;
19519;SDS011;9904;52.246;20.898;2023-04-24T07:56:06;16.30;;;6.23;;
19519;SDS011;9904;52.246;20.898;2023-04-24T07:58:33;19.48;;;6.72;;
19519;SDS011;9904;52.246;20.898;2023-04-24T08:01:00;15.43;;;6.43;;
19519;SDS011;9904;52.246;20.898;2023-04-24T08:03:27;18.05;;;6.72;;
19519;SDS011;9904;52.246;20.898;2023-04-24T08:05:54;26.30;;;7.30;;
19519;SDS011;9904;52.246;20.898;2023-04-24T08:08:22;18.45;;;7.10;;
19519;SDS011;9904;52.246;20.898;2023-04-24T08:10:49;20.67;;;7.10;;
19519;SDS011;9904;52.246;20.898;2023-04-24T08:13:16;19.55;;;6.88;;
19519;SDS011;9904;52.246;20.898;2023-04-24T08:15:42;20.80;;;6.88;;
19519;SDS011;9904;52.246;20.898;2023-04-24T08:18:10;14.75;;;6.30;;
19519;SDS011;9904;52.246;20.898;2023-04-24T08:20:39;19.60;;;7.63;;
19519;SDS011;9904;52.246;20.898;2023-04-24T08:23:05;24.80;;;6.40;;
19519;SDS011;9904;52.246;20.898;2023-04-24T08:25:32;13.25;;;6.72;;
19519;SDS011;9904;52.246;20.898;2023-04-24T08:27:59;16.20;;;6.47;;
19519;SDS011;9904;52.246;20.898;2023-04-24T08:30:26;15.77;;;6.47;;
19519;SDS011;9904;52.246;20.898;2023-04-24T08:32:52;17.48;;;7.05;;
19519;SDS011;9904;52.246;20.898;2023-04-24T08:35:19;14.07;;;5.90;;
19519;SDS011;9904;52.246;20.898;2023-04-24T08:37:46;19.47;;;6.67;;
19519;SDS011;9904;52.246;20.898;2023-04-24T08:40:14;15.57;;;7.17;;
19519;SDS011;9904;52.246;20.898;2023-04-24T08:42:42;12.80;;;6.37;;
19519;SDS011;9904;52.246;20.898;2023-04-24T08:45:10;19.80;;;7.27;;
19519;SDS011;9904;52.246;20.898;2023-04-24T08:47:38;31.97;;;7.93;;
19519;SDS011;9904;52.246;20.898;2023-04-24T08:50:06;23.17;;;8.23;;
19519;SDS011;9904;52.246;20.898;2023-04-24T08:52:36;26.57;;;7.53;;
19519;SDS011;9904;52.246;20.898;2023-04-24T08:55:03;30.17;;;8.30;;
19519;SDS011;9904;52.246;20.898;2023-04-24T08:57:30;24.50;;;7.97;;
19519;SDS011;9904;52.246;20.898;2023-04-24T08:59:57;20.60;;;7.43;;
19519;SDS011;9904;52.246;20.898;2023-04-24T09:02:24;20.97;;;7.27;;
19519;SDS011;9904;52.246;20.898;2023-04-24T09:04:52;18.37;;;7.57;;
19519;SDS011;9904;52.246;20.898;2023-04-24T09:07:19;31.07;;;7.27;;
19519;SDS011;9904;52.246;20.898;2023-04-24T09:09:46;17.03;;;6.97;;
19519;SDS011;9904;52.246;20.898;2023-04-24T09:12:13;18.90;;;6.90;;
19519;SDS011;9904;52.246;20.898;2023-04-24T09:14:40;35.03;;;9.30;;
19519;SDS011;9904;52.246;20.898;2023-04-24T09:17:11;15.27;;;6.60;;
19519;SDS011;9904;52.246;20.898;2023-04-24T09:19:38;18.23;;;5.97;;
19519;SDS011;9904;52.246;20.898;2023-04-24T09:22:06;15.07;;;5.80;;
19519;SDS011;9904;52.246;20.898;2023-04-24T09:24:33;11.60;;;6.80;;
19519;SDS011;9904;52.246;20.898;2023-04-24T09:27:01;17.27;;;6.00;;
19519;SDS011;9904;52.246;20.898;2023-04-24T09:29:28;13.27;;;6.07;;
19519;SDS011;9904;52.246;20.898;2023-04-24T09:31:54;23.77;;;7.63;;
19519;SDS011;9904;52.246;20.898;2023-04-24T09:34:22;101.10;;;13.57;;
19519;SDS011;9904;52.246;20.898;2023-04-24T09:36:50;20.50;;;5.70;;
19519;SDS011;9904;52.246;20.898;2023-04-24T09:39:18;16.27;;;5.73;;
19519;SDS011;9904;52.246;20.898;2023-04-24T09:41:48;10.63;;;5.53;;
19519;SDS011;9904;52.246;20.898;2023-04-24T09:44:20;11.00;;;5.60;;
19519;SDS011;9904;52.246;20.898;2023-04-24T09:46:54;12.63;;;5.75;;
19519;SDS011;9904;52.246;20.898;2023-04-24T09:49:24;15.07;;;5.87;;
19519;SDS011;9904;52.246;20.898;2023-04-24T09:52:03;17.80;;;6.50;;
19519;SDS011;9904;52.246;20.898;2023-04-24T09:54:31;15.87;;;6.00;;
19519;SDS011;9904;52.246;20.898;2023-04-24T09:56:58;18.42;;;5.97;;
19519;SDS011;9904;52.246;20.898;2023-04-24T09:59:26;13.87;;;5.60;;
19519;SDS011;9904;52.246;20.898;2023-04-24T10:01:52;22.33;;;5.72;;
19519;SDS011;9904;52.246;20.898;2023-04-24T10:04:20;19.52;;;5.80;;
19519;SDS011;9904;52.246;20.898;2023-04-24T10:06:48;15.05;;;5.60;;
19519;SDS011;9904;52.246;20.898;2023-04-24T10:09:19;14.93;;;5.67;;
19519;SDS011;9904;52.246;20.898;2023-04-24T10:11:50;12.93;;;4.63;;
19519;SDS011;9904;52.246;20.898;2023-04-24T10:14:18;11.45;;;4.97;;
19519;SDS011;9904;52.246;20.898;2023-04-24T10:16:47;15.35;;;5.40;;
19519;SDS011;9904;52.246;20.898;2023-04-24T10:19:14;12.53;;;5.07;;
19519;SDS011;9904;52.246;20.898;2023-04-24T10:21:42;15.13;;;5.20;;
19519;SDS011;9904;52.246;20.898;2023-04-24T10:24:13;11.93;;;4.80;;
19519;SDS011;9904;52.246;20.898;2023-04-24T10:26:41;17.07;;;5.07;;
19519;SDS011;9904;52.246;20.898;2023-04-24T10:29:09;11.07;;;4.65;;
19519;SDS011;9904;52.246;20.898;2023-04-24T10:31:41;13.43;;;4.87;;
19519;SDS011;9904;52.246;20.898;2023-04-24T10:34:12;14.45;;;5.18;;
19519;SDS011;9904;52.246;20.898;2023-04-24T10:36:40;12.03;;;5.10;;
19519;SDS011;9904;52.246;20.898;2023-04-24T10:39:10;11.27;;;4.93;;
19519;SDS011;9904;52.246;20.898;2023-04-24T10:41:38;17.60;;;5.13;;
19519;SDS011;9904;52.246;20.898;2023-04-24T10:44:05;10.93;;;6.23;;
19519;SDS011;9904;52.246;20.898;2023-04-24T10:46:33;18.87;;;6.70;;
19519;SDS011;9904;52.246;20.898;2023-04-24T10:49:00;63.57;;;9.17;;
19519;SDS011;9904;52.246;20.898;2023-04-24T10:52:03;15.20;;;5.17;;
19519;SDS011;9904;52.246;20.898;2023-04-24T10:54:27;20.77;;;6.00;;
19519;SDS011;9904;52.246;20.898;2023-04-24T10:59:44;12.37;;;5.03;;
19519;SDS011;9904;52.246;20.898;2023-04-24T11:02:11;10.57;;;5.03;;
19519;SDS011;9904;52.246;20.898;2023-04-24T11:04:41;12.70;;;5.33;;
19519;SDS011;9904;52.246;20.898;2023-04-24T11:07:12;9.52;;;4.82;;
19519;SDS011;9904;52.246;20.898;2023-04-24T11:09:39;16.27;;;5.40;;
19519;SDS011;9904;52.246;20.898;2023-04-24T11:12:10;14.33;;;5.30;;
19519;SDS011;9904;52.246;20.898;2023-04-24T11:17:35;9.63;;;5.37;;
19519;SDS011;9904;52.246;20.898;2023-04-24T11:20:05;15.37;;;6.23;;
19519;SDS011;9904;52.246;20.898;2023-04-24T11:22:53;15.53;;;6.10;;
19519;SDS011;9904;52.246;20.898;2023-04-24T11:25:21;12.73;;;5.77;;
19519;SDS011;9904;52.246;20.898;2023-04-24T11:27:49;15.63;;;5.70;;
19519;SDS011;9904;52.246;20.898;2023-04-24T11:30:17;16.25;;;5.05;;
19519;SDS011;9904;52.246;20.898;2023-04-24T11:32:47;8.45;;;4.68;;
19519;SDS011;9904;52.246;20.898;2023-04-24T11:35:17;9.98;;;5.45;;
19519;SDS011;9904;52.246;20.898;2023-04-24T11:37:46;10.77;;;5.45;;
19519;SDS011;9904;52.246;20.898;2023-04-24T11:40:35;12.80;;;5.60;;
19519;SDS011;9904;52.246;20.898;2023-04-24T11:43:03;11.73;;;5.20;;
19519;SDS011;9904;52.246;20.898;2023-04-24T11:45:33;12.30;;;4.77;;
19519;SDS011;9904;52.246;20.898;2023-04-24T11:47:59;10.93;;;5.30;;
19519;SDS011;9904;52.246;20.898;2023-04-24T11:50:26;11.77;;;5.13;;
19519;SDS011;9904;52.246;20.898;2023-04-24T11:52:54;11.32;;;4.90;;
19519;SDS011;9904;52.246;20.898;2023-04-24T11:55:23;8.67;;;4.80;;
19519;SDS011;9904;52.246;20.898;2023-04-24T11:57:57;18.87;;;5.47;;
19519;SDS011;9904;52.246;20.898;2023-04-24T12:00:26;12.77;;;5.40;;
19519;SDS011;9904;52.246;20.898;2023-04-24T12:03:04;8.80;;;4.40;;
19519;SDS011;9904;52.246;20.898;2023-04-24T12:05:32;10.57;;;4.40;;
19519;SDS011;9904;52.246;20.898;2023-04-24T12:08:01;10.77;;;4.47;;
19519;SDS011;9904;52.246;20.898;2023-04-24T12:10:29;6.93;;;4.07;;
19519;SDS011;9904;52.246;20.898;2023-04-24T12:12:57;10.87;;;4.17;;
19519;SDS011;9904;52.246;20.898;2023-04-24T12:15:24;9.87;;;3.97;;
19519;SDS011;9904;52.246;20.898;2023-04-24T12:17:51;10.60;;;4.27;;
19519;SDS011;9904;52.246;20.898;2023-04-24T12:20:23;8.10;;;4.63;;
19519;SDS011;9904;52.246;20.898;2023-04-24T12:22:58;13.57;;;5.40;;
19519;SDS011;9904;52.246;20.898;2023-04-24T12:25:26;10.97;;;5.03;;
19519;SDS011;9904;52.246;20.898;2023-04-24T12:30:34;8.77;;;4.67;;
19519;SDS011;9904;52.246;20.898;2023-04-24T12:33:04;12.73;;;5.00;;
19519;SDS011;9904;52.246;20.898;2023-04-24T12:35:32;8.10;;;4.67;;
19519;SDS011;9904;52.246;20.898;2023-04-24T12:38:06;10.70;;;4.67;;
19519;SDS011;9904;52.246;20.898;2023-04-24T12:40:35;8.40;;;4.07;;
19519;SDS011;9904;52.246;20.898;2023-04-24T12:43:02;10.10;;;4.40;;
19519;SDS011;9904;52.246;20.898;2023-04-24T12:45:28;8.67;;;4.30;;
19519;SDS011;9904;52.246;20.898;2023-04-24T12:47:55;15.00;;;4.67;;
19519;SDS011;9904;52.246;20.898;2023-04-24T12:50:22;36.87;;;5.73;;
19519;SDS011;9904;52.246;20.898;2023-04-24T12:52:48;132.07;;;9.60;;
19519;SDS011;9904;52.246;20.898;2023-04-24T12:55:15;73.83;;;6.63;;
19519;SDS011;9904;52.246;20.898;2023-04-24T12:57:42;56.30;;;6.87;;
19519;SDS011;9904;52.246;20.898;2023-04-24T13:00:10;49.50;;;5.27;;
19519;SDS011;9904;52.246;20.898;2023-04-24T13:02:37;46.07;;;4.67;;
19519;SDS011;9904;52.246;20.898;2023-04-24T13:05:04;10.03;;;3.57;;
19519;SDS011;9904;52.246;20.898;2023-04-24T13:07:31;25.23;;;3.87;;
19519;SDS011;9904;52.246;20.898;2023-04-24T13:09:59;30.70;;;3.83;;
19519;SDS011;9904;52.246;20.898;2023-04-24T13:12:25;24.73;;;3.20;;
19519;SDS011;9904;52.246;20.898;2023-04-24T13:14:53;19.60;;;3.80;;
19519;SDS011;9904;52.246;20.898;2023-04-24T13:17:19;22.07;;;3.97;;
19519;SDS011;9904;52.246;20.898;2023-04-24T13:19:46;14.50;;;3.57;;
19519;SDS011;9904;52.246;20.898;2023-04-24T13:22:13;20.93;;;4.00;;
19519;SDS011;9904;52.246;20.898;2023-04-24T13:24:40;33.93;;;3.70;;
19519;SDS011;9904;52.246;20.898;2023-04-24T13:27:07;13.70;;;3.00;;
19519;SDS011;9904;52.246;20.898;2023-04-24T13:29:36;8.30;;;3.33;;
19519;SDS011;9904;52.246;20.898;2023-04-24T13:32:03;8.50;;;2.80;;
19519;SDS011;9904;52.246;20.898;2023-04-24T13:34:29;13.10;;;3.33;;
19519;SDS011;9904;52.246;20.898;2023-04-24T13:36:56;13.93;;;3.70;;
19519;SDS011;9904;52.246;20.898;2023-04-24T13:39:24;11.90;;;3.50;;
19519;SDS011;9904;52.246;20.898;2023-04-24T13:41:52;14.13;;;3.70;;
19519;SDS011;9904;52.246;20.898;2023-04-24T13:44:19;14.27;;;3.63;;
19519;SDS011;9904;52.246;20.898;2023-04-24T13:46:47;20.30;;;3.40;;
19519;SDS011;9904;52.246;20.898;2023-04-24T13:49:15;17.27;;;3.57;;
19519;SDS011;9904;52.246;20.898;2023-04-24T13:51:42;8.13;;;3.47;;
19519;SDS011;9904;52.246;20.898;2023-04-24T13:54:08;13.17;;;3.30;;
19519;SDS011;9904;52.246;20.898;2023-04-24T13:56:35;13.57;;;3.07;;
19519;SDS011;9904;52.246;20.898;2023-04-24T13:59:02;7.10;;;3.17;;
19519;SDS011;9904;52.246;20.898;2023-04-24T14:01:28;12.20;;;3.43;;
19519;SDS011;9904;52.246;20.898;2023-04-24T14:03:55;15.40;;;3.10;;
19519;SDS011;9904;52.246;20.898;2023-04-24T14:06:22;11.13;;;3.40;;
19519;SDS011;9904;52.246;20.898;2023-04-24T14:08:50;6.80;;;3.40;;
19519;SDS011;9904;52.246;20.898;2023-04-24T14:11:17;10.47;;;3.00;;
19519;SDS011;9904;52.246;20.898;2023-04-24T14:13:44;12.70;;;3.57;;
19519;SDS011;9904;52.246;20.898;2023-04-24T14:16:12;9.53;;;3.30;;
19519;SDS011;9904;52.246;20.898;2023-04-24T14:18:39;11.60;;;3.53;;
19519;SDS011;9904;52.246;20.898;2023-04-24T14:21:06;8.53;;;3.00;;
19519;SDS011;9904;52.246;20.898;2023-04-24T14:23:33;8.27;;;2.90;;
19519;SDS011;9904;52.246;20.898;2023-04-24T14:25:59;5.37;;;3.03;;
19519;SDS011;9904;52.246;20.898;2023-04-24T14:28:26;8.97;;;3.40;;
19519;SDS011;9904;52.246;20.898;2023-04-24T14:30:53;7.90;;;3.20;;
19519;SDS011;9904;52.246;20.898;2023-04-24T14:33:20;5.67;;;3.50;;
19519;SDS011;9904;52.246;20.898;2023-04-24T14:35:46;9.40;;;3.67;;
19519;SDS011;9904;52.246;20.898;2023-04-24T14:38:14;5.83;;;3.20;;
19519;SDS011;9904;52.246;20.898;2023-04-24T14:40:41;7.07;;;3.13;;
19519;SDS011;9904;52.246;20.898;2023-04-24T14:43:11;4.80;;;2.77;;
19519;SDS011;9904;52.246;20.898;2023-04-24T14:45:37;6.47;;;2.93;;